Time;durP1;ratioP1;P1;durP2;ratioP2;P2;SDS_P1;SDS_P2;PMS_P1;PMS_P2;Temp;Humidity;BMP_temperature;BMP_pressure;BME280_temperature;BME280_humidity;BME280_pressure;Samples;Min_cycle;Max_cycle;Signal;HPM_P1;HPM_P2
2022/03/22 00:00:22;;;;;;;14.55;4.90;;;;;;;5.59;47.96;101168.78;5011037;28;20289;-44
2022/03/22 00:02:49;;;;;;;19.08;5.78;;;;;;;5.51;48.25;101162.69;5025034;28;20047;-44
2022/03/22 00:05:18;;;;;;;17.33;6.10;;;;;;;5.48;48.04;101157.50;4994150;28;20045;-42
2022/03/22 00:07:44;;;;;;;18.90;4.90;;;;;;;5.41;48.59;101160.84;5028425;28;20059;-43
2022/03/22 00:10:10;;;;;;;21.05;6.13;;;;;;;5.32;48.46;101165.94;5010321;28;20046;-43
2022/03/22 00:12:37;;;;;;;20.30;4.93;;;;;;;5.29;48.35;101153.84;4988593;28;20107;-43
2022/03/22 00:15:04;;;;;;;15.07;5.05;;;;;;;5.26;48.80;101161.56;5028754;28;20037;-44
2022/03/22 00:17:30;;;;;;;16.40;4.82;;;;;;;5.19;48.51;101154.59;5028283;28;20033;-43
2022/03/22 00:19:57;;;;;;;18.90;5.15;;;;;;;5.15;48.63;101160.56;5011050;28;20057;-43
2022/03/22 00:22:24;;;;;;;15.88;5.40;;;;;;;5.07;49.35;101152.78;5006742;28;20428;-42
2022/03/22 00:24:51;;;;;;;14.07;4.68;;;;;;;5.03;49.28;101155.28;5029176;28;20065;-43
2022/03/22 00:27:17;;;;;;;26.85;5.55;;;;;;;4.90;49.25;101156.84;4989845;28;20045;-43
2022/03/22 00:29:43;;;;;;;15.98;4.88;;;;;;;4.76;49.76;101152.38;5010017;28;20042;-43
2022/03/22 00:32:09;;;;;;;21.23;5.38;;;;;;;4.80;49.80;101157.59;5002116;28;20060;-43
2022/03/22 00:34:44;;;;;;;20.40;4.53;;;;;;;4.84;49.76;101153.34;5010818;28;20033;-42
2022/03/22 00:37:14;;;;;;;11.55;4.18;;;;;;;4.76;49.85;101142.06;5027457;28;20045;-45
2022/03/22 00:39:42;;;;;;;12.98;4.07;;;;;;;4.60;50.26;101134.16;5026703;28;20080;-43
2022/03/22 00:42:09;;;;;;;20.05;5.35;;;;;;;4.58;50.26;101148.72;5009869;28;20452;-44
2022/03/22 00:44:36;;;;;;;10.75;4.35;;;;;;;4.54;50.49;101143.50;5035085;28;20453;-45
2022/03/22 00:47:02;;;;;;;15.90;4.43;;;;;;;4.44;50.54;101126.19;5060981;28;20123;-43
2022/03/22 00:49:28;;;;;;;15.20;5.32;;;;;;;4.48;50.18;101136.56;5027763;28;20049;-44
2022/03/22 00:51:54;;;;;;;18.65;4.82;;;;;;;4.51;50.10;101143.44;4995171;28;20041;-43
2022/03/22 00:54:21;;;;;;;12.52;5.22;;;;;;;4.53;50.50;101141.78;5029959;28;20053;-43
2022/03/22 00:56:48;;;;;;;17.95;5.05;;;;;;;4.54;50.50;101146.09;5028457;28;20505;-42
2022/03/22 01:01:58;;;;;;;18.67;4.50;;;;;;;4.45;50.86;101130.50;5027046;28;20051;-41
2022/03/22 01:04:24;;;;;;;18.10;5.15;;;;;;;4.52;50.90;101140.03;5011381;28;20029;-46
2022/03/22 01:06:50;;;;;;;16.33;4.70;;;;;;;4.44;50.58;101136.50;4995747;28;20041;-43
2022/03/22 01:09:16;;;;;;;15.73;5.13;;;;;;;4.43;51.00;101138.22;5029300;28;20041;-43
2022/03/22 01:11:42;;;;;;;20.20;5.03;;;;;;;4.40;50.97;101127.84;4984644;28;20048;-43
2022/03/22 01:14:11;;;;;;;17.85;4.55;;;;;;;4.41;50.78;101139.88;5008285;28;20116;-44
2022/03/22 01:16:39;;;;;;;18.40;4.15;;;;;;;4.35;50.88;101133.78;5034218;28;20060;-47
2022/03/22 01:19:06;;;;;;;9.80;4.00;;;;;;;4.28;51.10;101134.56;5008091;28;20116;-43
2022/03/22 01:21:33;;;;;;;12.13;4.45;;;;;;;4.22;51.26;101135.31;5032920;28;20037;-43
2022/03/22 01:24:02;;;;;;;12.25;4.97;;;;;;;4.18;51.13;101139.56;5011110;28;20046;-44
2022/03/22 01:26:28;;;;;;;14.00;3.85;;;;;;;4.14;51.38;101136.91;5008954;28;20045;-44
2022/03/22 01:28:55;;;;;;;16.30;4.80;;;;;;;4.08;51.82;101135.09;5009059;28;20099;-43
2022/03/22 01:31:21;;;;;;;26.65;4.88;;;;;;;4.08;51.85;101131.69;5026167;28;20140;-44
2022/03/22 01:33:47;;;;;;;23.20;4.78;;;;;;;4.07;51.74;101125.69;4992785;28;20488;-43
2022/03/22 01:36:13;;;;;;;12.77;4.78;;;;;;;4.04;51.90;101127.31;4996950;28;20041;-43
2022/03/22 01:38:40;;;;;;;14.45;4.63;;;;;;;4.01;51.89;101115.28;5027787;28;20136;-45
2022/03/22 01:41:06;;;;;;;18.27;4.55;;;;;;;4.03;52.23;101128.19;5007677;28;20060;-43
2022/03/22 01:43:33;;;;;;;13.68;4.45;;;;;;;4.00;52.07;101125.56;5020933;28;20095;-43
2022/03/22 01:45:59;;;;;;;14.68;4.55;;;;;;;4.04;52.13;101124.75;5028548;28;20077;-44
2022/03/22 01:48:25;;;;;;;12.70;4.15;;;;;;;4.03;51.99;101123.03;5011265;28;20071;-45
2022/03/22 01:50:51;;;;;;;11.18;4.32;;;;;;;4.03;51.92;101115.31;5028087;28;20620;-43
2022/03/22 01:53:17;;;;;;;10.50;4.03;;;;;;;4.03;51.93;101120.47;5027514;28;20103;-44
2022/03/22 01:55:43;;;;;;;21.17;5.15;;;;;;;3.88;52.47;101121.06;5012317;28;20056;-43
2022/03/22 01:58:09;;;;;;;15.00;4.75;;;;;;;3.79;52.78;101124.38;5028613;28;20057;-44
2022/03/22 02:00:35;;;;;;;15.60;4.43;;;;;;;3.78;52.82;101109.78;5010364;28;20075;-43
2022/03/22 02:05:56;;;;;;;13.15;4.82;;;;;;;3.60;53.04;101114.63;5025079;28;20088;-43
2022/03/22 02:08:28;;;;;;;21.15;5.30;;;;;;;3.44;53.83;101112.66;5022147;28;20041;-43
2022/03/22 02:10:56;;;;;;;14.80;4.32;;;;;;;3.43;53.66;101116.03;4993987;28;20053;-44
2022/03/22 02:13:22;;;;;;;18.25;5.25;;;;;;;3.41;53.85;101107.44;5029595;28;20076;-44
2022/03/22 02:15:51;;;;;;;18.70;4.72;;;;;;;3.50;53.46;101114.44;5015886;28;20037;-43
2022/03/22 02:18:17;;;;;;;17.17;5.40;;;;;;;3.53;53.67;101099.94;5030034;28;20090;-45
2022/03/22 02:20:43;;;;;;;14.68;4.47;;;;;;;3.55;53.48;101098.28;5032719;28;20420;-45
2022/03/22 02:23:21;;;;;;;18.80;4.40;;;;;;;3.51;53.45;101101.59;5028250;28;20041;-44
2022/03/22 02:25:49;;;;;;;17.42;5.50;;;;;;;3.47;53.75;101097.25;5010632;28;20476;-45
2022/03/22 02:28:17;;;;;;;15.45;4.63;;;;;;;3.42;53.88;101098.88;4997892;28;20087;-43
2022/03/22 02:30:45;;;;;;;14.25;4.70;;;;;;;3.41;53.77;101097.16;5047837;28;20044;-44
2022/03/22 02:33:12;;;;;;;11.80;4.70;;;;;;;3.38;53.78;101097.09;5026087;28;20045;-44
2022/03/22 02:35:39;;;;;;;17.15;4.93;;;;;;;3.36;53.82;101091.94;5030562;28;20103;-46
2022/03/22 02:38:06;;;;;;;15.57;4.78;;;;;;;3.35;54.05;101095.34;5014978;28;20072;-43
2022/03/22 02:40:32;;;;;;;16.58;4.57;;;;;;;3.30;53.74;101086.69;5032139;28;20087;-44
2022/03/22 02:43:01;;;;;;;13.80;5.53;;;;;;;3.24;53.93;101084.03;5023987;28;20049;-43
2022/03/22 02:45:27;;;;;;;16.03;4.67;;;;;;;3.19;54.22;101087.34;5014675;28;20131;-46
2022/03/22 02:47:53;;;;;;;11.18;4.32;;;;;;;3.13;54.87;101082.97;5026835;28;20034;-48
2022/03/22 02:50:21;;;;;;;16.30;5.55;;;;;;;2.99;54.59;101069.84;5033565;28;20045;-47
2022/03/22 02:52:47;;;;;;;16.00;5.05;;;;;;;3.03;54.83;101083.63;5021367;28;20068;-47
2022/03/22 02:55:13;;;;;;;13.57;4.80;;;;;;;2.95;55.21;101092.88;5031996;28;20045;-44
2022/03/22 02:57:40;;;;;;;15.63;4.60;;;;;;;2.83;55.01;101080.66;5028711;28;20033;-44
2022/03/22 03:00:08;;;;;;;14.43;4.63;;;;;;;2.74;55.53;101079.63;4997281;28;20390;-45
2022/03/22 03:03:04;;;;;;;15.93;4.78;;;;;;;2.84;55.69;101089.25;5008787;28;20409;-45
2022/03/22 03:05:33;;;;;;;13.00;4.55;;;;;;;2.86;55.58;101091.03;4976835;28;20057;-43
2022/03/22 03:07:59;;;;;;;13.13;4.82;;;;;;;2.80;55.04;101093.47;4982167;28;20060;-44
2022/03/22 03:10:26;;;;;;;14.80;4.72;;;;;;;2.81;55.25;101096.91;5029161;28;20045;-46
2022/03/22 03:13:04;;;;;;;20.35;4.22;;;;;;;2.76;55.18;101093.38;5010711;28;20137;-44
2022/03/22 03:15:31;;;;;;;8.35;4.25;;;;;;;2.69;55.42;101084.69;5017117;28;20042;-45
2022/03/22 03:17:58;;;;;;;17.25;4.50;;;;;;;2.66;55.42;101084.63;5012294;28;20073;-44
2022/03/22 03:20:24;;;;;;;15.35;4.55;;;;;;;2.65;55.51;101084.59;4997678;28;20041;-43
2022/03/22 03:22:51;;;;;;;13.35;4.55;;;;;;;2.65;55.41;101082.03;5024976;28;20048;-44
2022/03/22 03:25:18;;;;;;;8.93;3.63;;;;;;;2.64;55.47;101091.44;5005674;28;20072;-45
2022/03/22 03:27:44;;;;;;;11.35;3.75;;;;;;;2.64;55.51;101088.84;5008969;28;20049;-44
2022/03/22 03:30:10;;;;;;;9.55;3.85;;;;;;;2.60;55.40;101092.22;4994918;28;20042;-45
2022/03/22 03:32:36;;;;;;;9.50;4.15;;;;;;;2.55;55.92;101088.69;5017670;28;20123;-44
2022/03/22 03:35:04;;;;;;;11.80;3.67;;;;;;;2.55;55.64;101089.56;5042259;28;20489;-45
2022/03/22 03:37:35;;;;;;;15.88;3.97;;;;;;;2.53;55.51;101092.91;5030156;28;20069;-44
2022/03/22 03:40:05;;;;;;;11.40;3.58;;;;;;;2.51;55.70;101094.59;5045533;28;20037;-43
2022/03/22 03:42:31;;;;;;;15.73;4.15;;;;;;;2.48;55.74;101091.94;5030388;28;20468;-45
2022/03/22 03:47:42;;;;;;;10.75;3.80;;;;;;;2.42;56.25;101087.56;5046940;28;20042;-43
2022/03/22 03:50:09;;;;;;;17.25;4.20;;;;;;;2.47;55.91;101088.50;4989122;28;20037;-45
2022/03/22 03:52:37;;;;;;;12.10;4.53;;;;;;;2.49;56.03;101092.00;4997167;28;20099;-45
2022/03/22 03:55:05;;;;;;;11.90;3.78;;;;;;;2.51;55.86;101086.88;5029851;28;20041;-46
2022/03/22 03:57:32;;;;;;;10.50;4.43;;;;;;;2.50;55.83;101085.16;5029379;28;20117;-43
2022/03/22 03:59:58;;;;;;;12.07;4.32;;;;;;;2.48;55.91;101066.28;5013688;28;20052;-46
2022/03/22 04:02:25;;;;;;;11.25;4.05;;;;;;;2.63;56.07;101088.81;5012726;28;20132;-43
2022/03/22 04:04:52;;;;;;;15.05;4.75;;;;;;;2.53;55.89;101064.66;5025549;28;20064;-44
2022/03/22 04:07:20;;;;;;;11.93;4.57;;;;;;;2.64;55.96;101072.59;5029249;28;20033;-45
2022/03/22 04:09:46;;;;;;;11.43;4.40;;;;;;;2.70;55.93;101078.72;5030085;28;20049;-45
2022/03/22 04:12:14;;;;;;;9.93;3.88;;;;;;;2.76;55.65;101080.53;5030683;28;20132;-43
2022/03/22 04:14:40;;;;;;;16.48;3.78;;;;;;;2.79;55.44;101073.75;5013595;28;20045;-45
2022/03/22 04:17:09;;;;;;;6.63;3.38;;;;;;;2.84;55.42;101059.28;5030214;28;20132;-44
2022/03/22 04:19:36;;;;;;;14.63;4.30;;;;;;;2.89;55.52;101065.38;5012805;28;20084;-43
2022/03/22 04:22:03;;;;;;;15.23;4.40;;;;;;;2.93;55.10;101056.88;5043329;28;20119;-44
2022/03/22 04:24:30;;;;;;;11.40;3.95;;;;;;;2.98;54.95;101062.13;5008096;28;20041;-44
2022/03/22 04:32:41;;;;;;;9.75;4.07;;;;;;;2.99;54.88;101051.88;5013371;28;20279;-43
2022/03/22 04:32:42;;;;;;;8.35;3.90;;;;;;;3.22;54.44;101065.13;5038206;28;20099;-43
2022/03/22 04:35:09;;;;;;;10.82;4.68;;;;;;;3.31;54.18;101065.28;5008253;28;20135;-45
2022/03/22 04:37:38;;;;;;;13.02;4.13;;;;;;;3.41;54.11;101072.31;5004496;28;20049;-43
2022/03/22 04:40:04;;;;;;;9.82;4.03;;;;;;;3.49;53.92;101061.28;5030331;28;20064;-46
2022/03/22 04:42:31;;;;;;;16.25;5.55;;;;;;;3.58;53.52;101054.59;5027385;28;20077;-44
2022/03/22 04:44:57;;;;;;;11.02;4.38;;;;;;;3.67;53.51;101057.28;4999405;28;20560;-44
2022/03/22 04:47:24;;;;;;;11.25;4.43;;;;;;;3.71;53.47;101066.81;5047304;28;20049;-45
2022/03/22 04:49:49;;;;;;;10.52;3.70;;;;;;;3.78;52.93;101062.59;5030044;28;20129;-44
2022/03/22 04:57:44;;;;;;;14.38;6.05;;;;;;;4.13;52.34;101066.59;5050406;28;20041;-44
2022/03/22 05:00:11;;;;;;;14.88;4.53;;;;;;;4.20;52.23;101049.50;5009397;28;20045;-45
2022/03/22 05:02:36;;;;;;;9.73;4.47;;;;;;;4.13;51.91;101038.28;5001626;28;20077;-42
2022/03/22 05:05:02;;;;;;;13.00;4.55;;;;;;;4.18;51.39;101043.47;5024409;28;20450;-45
2022/03/22 05:07:29;;;;;;;11.02;4.22;;;;;;;4.32;51.54;101065.09;5009230;28;20044;-44
2022/03/22 05:09:55;;;;;;;10.88;4.35;;;;;;;4.43;51.36;101058.38;5026539;28;20124;-44
2022/03/22 05:12:21;;;;;;;11.98;4.60;;;;;;;4.47;51.15;101059.28;5028905;28;20072;-44
2022/03/22 05:14:50;;;;;;;13.80;4.65;;;;;;;4.49;50.83;101055.88;5023542;28;20468;-46
2022/03/22 05:17:21;;;;;;;12.20;4.78;;;;;;;4.65;50.66;101059.50;5030142;28;20064;-50
2022/03/22 05:19:51;;;;;;;14.68;4.60;;;;;;;4.73;50.58;101068.19;4996749;28;20064;-40
2022/03/22 05:22:17;;;;;;;;;;;;;;;4.82;50.58;101069.97;5029962;28;20048;-40
2022/03/22 05:24:44;;;;;;;11.45;4.13;;;;;;;4.85;50.18;101063.19;5021107;28;19952;-39
2022/03/22 05:27:15;;;;;;;12.50;5.03;;;;;;;4.96;49.97;101064.16;5034155;28;20562;-40
2022/03/22 05:29:42;;;;;;;11.65;3.97;;;;;;;5.03;49.71;101065.94;5027479;28;20052;-41
2022/03/22 05:32:08;;;;;;;19.83;4.28;;;;;;;5.10;49.50;101061.69;5028541;28;20571;-41
2022/03/22 05:34:34;;;;;;;14.38;4.35;;;;;;;5.13;49.31;101065.16;5023742;28;20049;-37
2022/03/22 05:37:00;;;;;;;16.50;4.90;;;;;;;5.20;49.40;101060.94;5041986;28;20136;-39
2022/03/22 05:39:26;;;;;;;7.70;3.42;;;;;;;5.29;48.95;101063.59;5028135;28;20040;-40
2022/03/22 05:41:52;;;;;;;15.95;4.75;;;;;;;5.35;48.43;101061.06;5028669;28;20045;-37
2022/03/22 05:44:20;;;;;;;11.00;4.20;;;;;;;5.48;48.55;101062.06;5024302;28;20056;-38
2022/03/22 05:46:47;;;;;;;14.63;4.78;;;;;;;5.55;48.20;101054.38;5031164;28;20040;-38
2022/03/22 05:49:13;;;;;;;11.80;3.83;;;;;;;5.65;48.52;101051.88;5032375;28;20038;-41
2022/03/22 05:51:39;;;;;;;11.40;4.05;;;;;;;5.59;48.83;101031.19;5028488;28;20420;-40
2022/03/22 05:54:05;;;;;;;16.77;4.72;;;;;;;5.96;48.38;101061.59;5032898;28;20038;-40
2022/03/22 05:56:31;;;;;;;19.38;5.30;;;;;;;6.27;47.99;101049.72;5032242;28;20051;-41
2022/03/22 05:59:00;;;;;;;8.15;4.05;;;;;;;6.77;47.85;101052.50;5026169;28;20044;-40
2022/03/22 06:01:27;;;;;;;22.55;5.53;;;;;;;7.62;45.73;101040.53;5026107;28;20456;-41
2022/03/22 06:03:54;;;;;;;11.10;4.35;;;;;;;8.65;42.75;101044.59;5024786;28;20095;-42
2022/03/22 06:06:20;;;;;;;12.95;4.30;;;;;;;9.57;40.94;101050.91;5018826;28;20456;-41
2022/03/22 06:08:46;;;;;;;18.05;4.40;;;;;;;10.43;39.37;101046.59;5019603;28;20134;-45
2022/03/22 06:11:12;;;;;;;14.40;4.22;;;;;;;11.23;37.76;101038.56;5030317;28;20128;-42
2022/03/22 06:13:38;;;;;;;11.05;4.05;;;;;;;11.98;35.68;101036.44;5030067;28;20048;-41
2022/03/22 06:16:05;;;;;;;13.95;4.25;;;;;;;12.66;35.28;101027.25;5030733;28;20181;-42
2022/03/22 06:18:31;;;;;;;14.30;4.50;;;;;;;13.30;33.83;101023.19;5030962;28;20456;-40
2022/03/22 06:20:57;;;;;;;14.15;5.00;;;;;;;13.95;32.88;101018.06;5026007;28;20072;-42
2022/03/22 06:23:23;;;;;;;12.18;4.85;;;;;;;14.69;31.44;101022.94;5011453;28;20034;-42
2022/03/22 06:25:51;;;;;;;18.30;5.88;;;;;;;15.22;29.70;101016.06;5020056;28;20045;-42
2022/03/22 06:28:18;;;;;;;13.10;4.82;;;;;;;15.84;29.16;101014.00;5030687;28;20073;-42
2022/03/22 06:30:44;;;;;;;13.70;4.70;;;;;;;16.46;28.42;101024.84;5032617;28;20041;-42
2022/03/22 06:33:13;;;;;;;15.88;5.13;;;;;;;16.87;27.33;101014.56;5031383;28;20040;-41
2022/03/22 06:35:40;;;;;;;10.48;4.43;;;;;;;17.47;26.53;101020.91;5032440;28;20045;-42
2022/03/22 06:38:06;;;;;;;12.18;5.13;;;;;;;18.09;25.80;101031.44;5028314;28;20042;-42
2022/03/22 06:40:34;;;;;;;12.90;5.72;;;;;;;18.69;24.96;101025.19;5012584;28;20041;-40
2022/03/22 06:43:01;;;;;;;20.67;6.00;;;;;;;19.40;24.41;101032.31;5021636;28;20099;-41
2022/03/22 06:45:28;;;;;;;14.98;5.50;;;;;;;20.17;23.48;101029.28;5032460;28;20392;-42
2022/03/22 06:47:54;;;;;;;19.42;5.95;;;;;;;20.81;22.88;101026.72;5031088;28;20132;-43
2022/03/22 06:50:20;;;;;;;14.25;5.47;;;;;;;21.33;22.04;101023.78;5028819;28;20627;-41
2022/03/22 06:52:46;;;;;;;17.63;6.07;;;;;;;21.91;21.21;101016.78;5032090;28;20132;-41
2022/03/22 06:55:16;;;;;;;22.55;5.70;;;;;;;22.42;20.59;101016.38;5031578;28;20041;-41
2022/03/22 06:57:42;;;;;;;15.82;5.30;;;;;;;22.69;19.75;101009.34;5031771;28;20516;-41
2022/03/22 07:00:10;;;;;;;9.13;4.68;;;;;;;22.49;19.60;101010.59;5013946;28;20520;-42
2022/03/22 07:02:38;;;;;;;12.48;5.57;;;;;;;23.12;19.51;101008.31;5030353;28;20064;-41
2022/03/22 07:05:04;;;;;;;18.10;6.93;;;;;;;23.80;19.17;100997.56;5032035;28;20044;-41
2022/03/22 07:07:30;;;;;;;15.40;6.28;;;;;;;24.21;18.28;101001.84;5031676;28;20041;-43
2022/03/22 07:09:56;;;;;;;16.33;5.90;;;;;;;24.04;18.19;100997.69;5014695;28;20102;-42
2022/03/22 07:12:22;;;;;;;15.40;5.95;;;;;;;23.74;18.08;100989.16;5018183;28;20095;-42
2022/03/22 07:14:47;;;;;;;21.67;6.68;;;;;;;23.98;17.97;100988.31;5017068;28;20037;-42
2022/03/22 07:17:13;;;;;;;12.63;5.43;;;;;;;24.37;17.59;100978.56;5039506;28;20101;-41
2022/03/22 07:19:39;;;;;;;17.38;5.97;;;;;;;24.84;17.11;100996.41;5031802;28;20045;-41
2022/03/22 07:22:06;;;;;;;17.20;6.30;;;;;;;24.93;16.95;100990.44;5030337;28;20138;-42
2022/03/22 07:24:32;;;;;;;15.65;5.60;;;;;;;25.58;16.32;100993.56;5024595;28;20045;-41
2022/03/22 07:26:59;;;;;;;18.90;6.18;;;;;;;26.17;15.88;100993.38;5032217;28;20037;-41
2022/03/22 07:29:25;;;;;;;14.90;6.00;;;;;;;25.83;15.65;100989.00;5023471;28;20045;-42
2022/03/22 07:31:51;;;;;;;16.77;5.68;;;;;;;26.60;15.48;100996.19;5032178;28;20144;-42
2022/03/22 07:34:17;;;;;;;17.65;5.95;;;;;;;27.15;14.97;100997.09;4995289;28;20080;-42
2022/03/22 07:36:44;;;;;;;9.07;3.75;;;;;;;27.32;14.00;100996.53;5043834;28;20048;-41
2022/03/22 07:39:11;;;;;;;10.02;3.35;;;;;;;27.76;13.42;100998.16;5031767;28;20083;-41
2022/03/22 07:41:38;;;;;;;10.38;3.15;;;;;;;28.18;12.92;100988.28;5031041;28;20556;-44
2022/03/22 07:44:06;;;;;;;7.00;2.65;;;;;;;28.48;12.45;100990.09;5022765;28;20049;-42
2022/03/22 07:46:33;;;;;;;;;;;;;;;28.59;12.51;100995.34;5031350;28;20065;-41
2022/03/22 07:52:58;;;;;;;9.77;2.40;;;;;;;28.84;11.93;100994.84;5010036;28;19917;-42
2022/03/22 07:54:30;;;;;;;6.60;2.60;;;;;;;28.30;11.68;100975.66;5029041;28;20044;-41
2022/03/22 07:56:56;;;;;;;10.30;2.33;;;;;;;28.35;11.73;100965.41;5031099;28;20041;-41
2022/03/22 07:59:24;;;;;;;4.53;2.30;;;;;;;28.49;11.40;100978.41;5020123;28;20073;-42
2022/03/22 08:01:51;;;;;;;;;;;;;;;27.99;11.44;100969.44;5013331;28;20045;-42
2022/03/22 08:04:17;;;;;;;6.57;2.13;;;;;;;27.47;11.78;100973.03;5030945;28;19917;-42
2022/03/22 08:06:43;;;;;;;6.72;2.35;;;;;;;27.50;11.64;100973.63;5023647;28;20382;-40
2022/03/22 08:09:09;;;;;;;15.00;2.80;;;;;;;27.87;11.54;100973.16;5011793;28;20168;-43
2022/03/22 08:11:35;;;;;;;6.72;2.70;;;;;;;28.68;11.52;100973.13;5026527;28;20043;-41
2022/03/22 08:14:02;;;;;;;3.45;2.08;;;;;;;29.26;10.88;100984.75;5024948;28;20537;-41
2022/03/22 08:16:28;;;;;;;11.38;2.33;;;;;;;29.70;10.79;100977.13;5022142;28;20045;-42
2022/03/22 08:18:54;;;;;;;5.40;2.20;;;;;;;30.08;10.73;100962.81;5031507;28;20041;-41
2022/03/22 08:21:20;;;;;;;11.80;2.22;;;;;;;30.21;10.62;100961.47;5018982;28;20065;-42
2022/03/22 08:23:46;;;;;;;4.03;2.33;;;;;;;30.09;10.45;100953.78;5027235;28;20131;-41
2022/03/22 08:26:13;;;;;;;9.15;2.58;;;;;;;29.96;10.45;100942.50;5011685;28;21500;-42
2022/03/22 08:28:40;;;;;;;9.10;2.17;;;;;;;29.71;10.55;100938.63;5026527;28;20417;-42
2022/03/22 08:31:06;;;;;;;12.18;2.28;;;;;;;29.76;10.63;100936.34;5024648;28;20102;-41
2022/03/22 08:33:32;;;;;;;7.30;1.85;;;;;;;30.30;9.93;100930.22;5028203;28;20052;-41
2022/03/22 08:35:58;;;;;;;4.63;2.08;;;;;;;30.09;10.18;100930.47;5011517;28;20125;-42
2022/03/22 08:38:26;;;;;;;7.63;1.70;;;;;;;30.22;9.91;100922.06;5013707;28;20583;-41
2022/03/22 08:40:53;;;;;;;10.77;2.30;;;;;;;30.48;10.04;100925.75;5003849;28;20137;-43
2022/03/22 08:43:19;;;;;;;5.50;2.15;;;;;;;30.76;10.00;100931.94;5016749;28;20045;-42
2022/03/22 08:45:45;;;;;;;9.45;2.30;;;;;;;30.68;10.32;100923.78;5018601;28;20045;-41
2022/03/22 08:48:12;;;;;;;26.63;2.95;;;;;;;31.22;10.00;100911.22;5043007;28;20038;-41
2022/03/22 08:50:46;;;;;;;15.30;2.80;;;;;;;31.31;9.87;100905.75;5016685;28;20176;-41
2022/03/22 08:53:12;;;;;;;6.85;2.13;;;;;;;31.55;9.34;100911.31;5023460;28;20131;-40
2022/03/22 08:55:38;;;;;;;4.32;1.55;;;;;;;31.50;9.60;100908.28;5029380;28;20211;-40
2022/03/22 08:58:06;;;;;;;6.13;1.80;;;;;;;31.87;9.42;100910.72;5030732;28;20564;-41
2022/03/22 09:00:36;;;;;;;4.47;1.77;;;;;;;31.57;9.26;100908.50;5017636;28;20223;-41
2022/03/22 09:03:04;;;;;;;16.17;3.10;;;;;;;32.08;9.49;100914.84;5029631;28;20037;-42
2022/03/22 09:08:14;;;;;;;4.90;2.00;;;;;;;32.28;8.92;100909.06;5019264;28;20504;-41
2022/03/22 09:10:41;;;;;;;7.40;1.90;;;;;;;32.70;8.54;100911.75;5027190;28;20048;-42
2022/03/22 09:13:07;;;;;;;11.10;2.10;;;;;;;33.11;8.73;100917.16;5013317;28;20037;-42
2022/03/22 09:15:39;;;;;;;14.68;2.05;;;;;;;33.56;8.47;100916.63;5013961;28;20045;-40
2022/03/22 09:18:05;;;;;;;8.75;2.40;;;;;;;34.01;7.89;100913.34;5029919;28;20049;-40
2022/03/22 09:20:32;;;;;;;4.78;1.88;;;;;;;33.91;7.66;100907.31;5017509;28;20411;-41
2022/03/22 09:23:00;;;;;;;11.00;2.15;;;;;;;33.97;7.54;100912.00;5015534;28;20123;-40
2022/03/22 09:25:27;;;;;;;8.57;2.53;;;;;;;34.24;7.61;100897.25;5018025;28;20045;-41
2022/03/22 09:27:54;;;;;;;11.77;2.25;;;;;;;34.50;7.38;100900.47;5030721;28;20063;-41
2022/03/22 09:30:20;;;;;;;10.43;2.67;;;;;;;34.71;7.61;100897.16;5019092;28;20114;-40
2022/03/22 09:32:46;;;;;;;11.18;1.92;;;;;;;34.72;7.59;100901.53;5061583;28;20064;-41
2022/03/22 09:35:14;;;;;;;15.65;2.47;;;;;;;35.05;7.22;100897.59;5017077;28;20477;-42
2022/03/22 09:37:43;;;;;;;11.38;2.05;;;;;;;35.26;7.41;100899.63;5007035;28;20140;-41
2022/03/22 09:40:11;;;;;;;15.18;2.70;;;;;;;35.53;7.27;100900.88;5027643;28;20584;-42
2022/03/22 09:42:38;;;;;;;11.02;3.00;;;;;;;35.67;6.97;100898.22;5022092;28;20037;-40
2022/03/22 09:45:10;;;;;;;6.45;2.17;;;;;;;35.66;7.11;100899.25;5018378;28;20046;-41
2022/03/22 09:47:37;;;;;;;11.50;2.35;;;;;;;35.79;6.83;100895.91;5048600;28;20045;-42
2022/03/22 09:50:06;;;;;;;11.15;2.40;;;;;;;35.71;6.69;100901.38;5028902;28;20505;-41
2022/03/22 09:52:34;;;;;;;7.13;2.10;;;;;;;35.40;6.82;100890.69;5030455;28;20099;-41
2022/03/22 09:55:00;;;;;;;12.15;2.28;;;;;;;35.28;7.07;100867.00;5027695;28;20486;-41
2022/03/22 09:57:27;;;;;;;9.02;2.20;;;;;;;35.28;6.61;100883.22;5030421;28;20509;-39
2022/03/22 09:59:53;;;;;;;13.90;2.40;;;;;;;35.44;6.68;100883.03;5026410;28;20110;-40
2022/03/22 10:02:27;;;;;;;5.63;1.92;;;;;;;35.53;6.73;100885.50;5029182;28;20128;-41
2022/03/22 10:04:53;;;;;;;9.57;2.25;;;;;;;35.81;6.37;100890.28;5036970;28;20037;-41
2022/03/22 10:07:20;;;;;;;14.20;2.40;;;;;;;35.91;6.62;100890.81;5030125;28;20049;-40
2022/03/22 10:09:53;;;;;;;9.87;2.00;;;;;;;35.77;6.41;100883.56;5015887;28;20048;-41
2022/03/22 10:12:37;;;;;;;6.63;2.47;;;;;;;35.71;6.39;100879.72;5022543;28;20560;-43
2022/03/22 10:15:10;;;;;;;7.38;2.22;;;;;;;35.71;6.63;100868.91;5028207;28;20529;-41
2022/03/22 10:17:37;;;;;;;8.25;1.80;;;;;;;35.85;6.13;100868.09;5023441;28;20038;-40
2022/03/22 10:20:05;;;;;;;9.48;2.10;;;;;;;35.85;6.64;100872.66;5047761;28;20045;-40
2022/03/22 10:22:32;;;;;;;7.85;2.00;;;;;;;35.81;6.72;100853.22;5003897;28;20045;-40
2022/03/22 10:24:59;;;;;;;20.40;2.47;;;;;;;35.82;6.43;100859.47;4995410;28;20048;-44
2022/03/22 10:27:32;;;;;;;11.60;2.20;;;;;;;35.66;6.81;100866.75;5009494;28;20416;-40
2022/03/22 10:30:01;;;;;;;10.70;2.20;;;;;;;35.71;6.57;100862.66;5025503;28;20095;-46
2022/03/22 10:32:34;;;;;;;7.40;1.98;;;;;;;35.85;6.69;100851.84;5028529;28;20136;-40
2022/03/22 10:35:15;;;;;;;4.72;1.70;;;;;;;35.79;6.45;100857.16;5026932;28;20095;-40
2022/03/22 10:37:45;;;;;;;8.05;1.75;;;;;;;35.61;6.40;100855.63;5031274;28;20045;-41
2022/03/22 10:40:21;;;;;;;6.55;2.20;;;;;;;35.65;6.17;100848.81;5027028;28;20045;-40
2022/03/22 10:42:48;;;;;;;6.40;1.83;;;;;;;35.76;6.73;100860.22;5032384;28;20048;-40
2022/03/22 10:45:14;;;;;;;4.28;1.67;;;;;;;35.73;6.52;100841.66;5031544;28;20068;-40
2022/03/22 10:47:40;;;;;;;3.65;1.77;;;;;;;35.80;6.63;100838.00;5014102;28;20041;-41
2022/03/22 10:50:07;;;;;;;10.32;2.00;;;;;;;35.74;6.57;100849.59;5031075;28;20040;-41
2022/03/22 10:52:33;;;;;;;10.52;2.33;;;;;;;35.81;6.81;100852.38;5031365;28;20041;-41
2022/03/22 10:54:59;;;;;;;7.43;2.10;;;;;;;35.95;6.38;100852.38;5032671;28;20480;-41
2022/03/22 10:57:44;;;;;;;9.98;1.90;;;;;;;35.87;6.18;100854.34;5031089;28;20075;-42
2022/03/22 11:00:10;;;;;;;5.47;1.58;;;;;;;35.62;6.17;100829.41;5013851;28;20046;-41
2022/03/22 11:02:37;;;;;;;2.63;1.70;;;;;;;35.67;6.49;100844.09;5013758;28;20057;-40
2022/03/22 11:05:04;;;;;;;5.20;2.00;;;;;;;35.74;6.58;100836.06;5062572;28;20041;-41
2022/03/22 11:07:39;;;;;;;4.13;1.73;;;;;;;35.87;6.24;100835.38;5021343;28;20298;-40
2022/03/22 11:10:05;;;;;;;7.43;2.35;;;;;;;36.04;6.36;100832.28;5063170;28;20033;-39
2022/03/22 11:12:32;;;;;;;5.25;1.90;;;;;;;36.29;6.47;100827.38;5014772;28;20075;-39
2022/03/22 11:14:58;;;;;;;;;;;;;;;36.40;6.71;100832.31;5029572;28;20029;-40
2022/03/22 11:17:26;;;;;;;6.93;2.10;;;;;;;36.25;6.65;100814.41;5017234;28;19917;-41
2022/03/22 11:19:51;;;;;;;7.13;1.88;;;;;;;36.02;5.98;100831.63;5011542;28;20108;-41
2022/03/22 11:22:18;;;;;;;3.47;1.80;;;;;;;35.79;6.46;100820.09;5030536;28;20042;-40
2022/03/22 11:24:44;;;;;;;2.80;1.60;;;;;;;35.45;6.23;100801.69;5030926;28;20183;-40
2022/03/22 11:27:10;;;;;;;8.48;2.08;;;;;;;35.50;6.28;100834.44;5028786;28;20057;-41
2022/03/22 11:29:40;;;;;;;6.75;1.80;;;;;;;35.68;6.70;100829.53;5031565;28;20056;-40
2022/03/22 11:34:53;;;;;;;8.00;1.98;;;;;;;35.73;6.79;100820.84;5032157;28;20057;-40
2022/03/22 11:37:33;;;;;;;9.25;2.45;;;;;;;35.85;6.25;100826.63;5030253;28;20037;-42
2022/03/22 11:43:09;;;;;;;12.38;2.53;;;;;;;35.61;6.91;100814.19;5049772;28;20534;-42
2022/03/22 11:45:48;;;;;;;7.85;2.35;;;;;;;35.46;6.54;100816.06;5031778;28;20516;-41
2022/03/22 11:48:16;;;;;;;7.57;2.10;;;;;;;35.31;6.49;100810.66;5038898;28;20053;-39
2022/03/22 11:50:45;;;;;;;5.63;1.90;;;;;;;35.11;6.47;100807.63;5022741;28;20052;-39
2022/03/22 11:53:20;;;;;;;9.68;2.45;;;;;;;34.77;6.97;100801.84;5012187;28;20420;-40
2022/03/22 11:55:53;;;;;;;10.25;1.98;;;;;;;34.34;6.93;100806.03;5029306;28;20033;-40